Aromas, California
Current Conditions -  °F | °C
As of 1:53 AM on Wednesday 22 Oct 2014 (Local Time) from KWVI Reporting Station
Clear Clear  
Wind Chill: 52°   Ceiling: Unl
Heat Index: 52°   Visibility: 10mi
Dew Point: 47°   Wind: 5mph
Humidity: 83%   Direction: 320°NW
Pressure: 30.05"   Gusts: NA
Location:  36.88°N, 121.64°W
Report Text: KWVI 220853Z AUTO 32004KT 10SM CLR 11/08 A3005 RMK AO2 SLP175 T01110083 55000
Loading
Personal Weather Stations






























Interactive Weather Map
Tropical Storm Tracking
New forecast layout! Learn more

10-Day Weather Forecast

Advertisements
Track Severe Weather on mobile